Seattle, WA

4:17 PM PDT on September 30, 2014 (GMT -0700)
NOS_NWLON Seattle, Puget Sound, WA, WA NWLON | Change Station
CLOSE
Current Station
Personal Weather Station
Location: Seattle, WA
Elevation: 0 ft
Nearby Weather Stations

Elev 0 ft 47.60 °N, 122.34 °W | Updated 1 hour ago

Overcast
Overcast
60.0 °F
Feels Like 60.0 °F
N
4.0
Wind Variable Wind from NW
Gusts 6.0 mph

Today
High -- | Low -- °F
--% Chance of Precip.
Yesterday
High -- | Low -- °F
Precip. -- in
7:07 AM 6:50 PM
Waxing Crescent, 41% visible
Pressure 30.09 in
Visibility 10.0 miles
Clouds Mostly Cloudy 7000 ft
Overcast 9000 ft
Dew Point Not available.
Humidity Not available.
Rainfall -999.00 in
Snow Depth 1 in , 0 in , 0 in
UV 1 out of 12
Pollen .40 out of 12
Air Quality Not available.
Flu Activity Not available.
METAR KBFI 302253Z VRB04KT 10SM BKN070 OVC090 19/09 A3009 RMK AO2 SLP190 T01940094

More Conditions Fewer Conditions

Pressure 30.09 in
Visibility 10.0 miles
Clouds Mostly Cloudy 7000 ft
Overcast 9000 ft
Dew Point Not available.
Humidity Not available.
Rainfall -999.00 in
Snow Depth 1 in , 0 in , 0 in
UV 1 out of 12
Pollen .40 out of 12
Air Quality Not available.
Flu Activity Not available.
METAR KBFI 302253Z VRB04KT 10SM BKN070 OVC090 19/09 A3009 RMK AO2 SLP190 T01940094

More Conditions Fewer Conditions

10-Day Weather Forecast

Almanac

Astronomy

Sep. 30, 2014 Rise Set
Actual Time 7:07 AM PDT 6:50 PM PDT
Civil Twilight 6:36 AM PDT 7:21 PM PDT
Nautical Twilight 6:00 AM PDT 7:56 PM PDT
Astronomical Twilight 5:24 AM PDT 8:33 PM PDT
Moon 1:39 PM PDT 11:07 PM PDT
Length of Visible Light 12h 44m
Length of Day
11h 43m
Tomorrow will be 3m 23s shorter.
Waxing Crescent, 41% of the Moon is Illuminated
Today
Waxing Crescent
Oct 1
First Quarter
Oct 8
Full
Oct 15
Last Quarter
Oct 23
New

Today's Extremes

State Highs State Lows

Community

WunderPhotos

Upload Photos

1,757,768 photos uploaded!

Nearby

Air Quality

  Air Quality AQ Index Pollutant
Tuesday Good
PM2.5
Wednesday Good
PM2.5
Thursday Good
PM2.5
Friday Good
PM2.5
Saturday Good
PM2.5

Snow Depth

Station Depth Elevation
Moses Mountain 1 in 5300 ft
Morse Lake 0 in 5400 ft
Swift Creek 0 in 3770 ft
Spencer Meadow 0 in 3400 ft
Grouse Camp 0 in 5380 ft

Earthquake Activity

City Distance Mag. Time & Date
No recent earthquake activity has been reported nearby.
Minimum magnitude displayed is 2.5.

Coastal Water Temperatures

Place Temperature
Port Townsend, WA 52.0 °F
Seattle, WA 55.0 °F
Friday Harbor, WA 52.0 °F
Tacoma, WA 54.0 °F

Nearby Weather Stations